sensor_id;sensor_type;location;lat;lon;timestamp;pressure;altitude;pressure_sealevel;temperature;humidity
9419;BME280;4748;50.802;7.132;2023-05-29T03:32:23;101461.78;;;14.32;100.00
9419;BME280;4748;50.802;7.132;2023-05-29T03:34:49;101463.56;;;14.38;100.00
9419;BME280;4748;50.802;7.132;2023-05-29T03:37:15;101458.03;;;14.33;100.00
9419;BME280;4748;50.802;7.132;2023-05-29T03:39:41;101453.53;;;14.27;100.00
9419;BME280;4748;50.802;7.132;2023-05-29T03:42:06;101466.56;;;14.30;100.00
9419;BME280;4748;50.802;7.132;2023-05-29T03:44:31;101467.09;;;14.21;100.00
9419;BME280;4748;50.802;7.132;2023-05-29T03:46:57;101465.78;;;14.23;100.00
9419;BME280;4748;50.802;7.132;2023-05-29T03:49:22;101464.97;;;14.23;100.00
9419;BME280;4748;50.802;7.132;2023-05-29T03:51:48;101464.31;;;14.27;100.00
9419;BME280;4748;50.802;7.132;2023-05-29T03:54:14;101468.50;;;14.23;100.00
9419;BME280;4748;50.802;7.132;2023-05-29T03:56:39;101476.56;;;14.23;100.00
9419;BME280;4748;50.802;7.132;2023-05-29T03:59:04;101480.34;;;14.22;100.00
9419;BME280;4748;50.802;7.132;2023-05-29T04:01:30;101482.63;;;14.19;100.00
9419;BME280;4748;50.802;7.132;2023-05-29T04:03:55;101478.06;;;14.19;100.00
9419;BME280;4748;50.802;7.132;2023-05-29T04:06:21;101484.66;;;14.23;100.00
9419;BME280;4748;50.802;7.132;2023-05-29T04:08:47;101477.88;;;14.21;100.00
9419;BME280;4748;50.802;7.132;2023-05-29T04:11:12;101475.09;;;14.27;100.00
9419;BME280;4748;50.802;7.132;2023-05-29T04:13:38;101471.72;;;14.14;100.00
9419;BME280;4748;50.802;7.132;2023-05-29T04:16:04;101484.28;;;14.20;100.00
9419;BME280;4748;50.802;7.132;2023-05-29T04:18:29;101486.91;;;14.26;100.00
9419;BME280;4748;50.802;7.132;2023-05-29T04:20:55;101493.19;;;14.20;100.00
9419;BME280;4748;50.802;7.132;2023-05-29T04:23:20;101494.91;;;14.32;100.00
9419;BME280;4748;50.802;7.132;2023-05-29T04:25:46;101493.88;;;14.33;100.00
9419;BME280;4748;50.802;7.132;2023-05-29T04:28:11;101493.50;;;14.30;100.00
9419;BME280;4748;50.802;7.132;2023-05-29T04:30:37;101496.94;;;14.37;100.00
9419;BME280;4748;50.802;7.132;2023-05-29T04:33:04;101500.03;;;14.40;100.00
9419;BME280;4748;50.802;7.132;2023-05-29T04:35:29;101497.47;;;14.45;100.00
9419;BME280;4748;50.802;7.132;2023-05-29T04:37:55;101503.63;;;14.52;100.00
9419;BME280;4748;50.802;7.132;2023-05-29T04:40:21;101511.78;;;14.64;100.00
9419;BME280;4748;50.802;7.132;2023-05-29T04:42:46;101514.19;;;14.72;100.00
9419;BME280;4748;50.802;7.132;2023-05-29T04:45:12;101513.56;;;14.87;100.00
9419;BME280;4748;50.802;7.132;2023-05-29T04:47:38;101519.31;;;14.91;100.00
9419;BME280;4748;50.802;7.132;2023-05-29T04:50:12;101522.47;;;15.06;100.00
9419;BME280;4748;50.802;7.132;2023-05-29T04:52:38;101521.03;;;15.21;100.00
9419;BME280;4748;50.802;7.132;2023-05-29T04:55:04;101524.44;;;15.28;100.00
9419;BME280;4748;50.802;7.132;2023-05-29T04:57:30;101523.16;;;15.31;100.00
9419;BME280;4748;50.802;7.132;2023-05-29T04:59:55;101534.56;;;15.32;100.00
9419;BME280;4748;50.802;7.132;2023-05-29T05:02:21;101536.47;;;15.43;100.00
9419;BME280;4748;50.802;7.132;2023-05-29T05:04:46;101534.38;;;15.45;100.00
9419;BME280;4748;50.802;7.132;2023-05-29T05:07:12;101527.13;;;15.57;100.00
9419;BME280;4748;50.802;7.132;2023-05-29T05:09:38;101542.31;;;15.70;100.00
9419;BME280;4748;50.802;7.132;2023-05-29T05:12:03;101542.13;;;15.82;100.00
9419;BME280;4748;50.802;7.132;2023-05-29T05:14:28;101542.13;;;15.82;100.00
9419;BME280;4748;50.802;7.132;2023-05-29T05:16:54;101534.72;;;15.78;100.00
9419;BME280;4748;50.802;7.132;2023-05-29T05:19:19;101539.25;;;15.78;100.00
9419;BME280;4748;50.802;7.132;2023-05-29T05:21:45;101541.38;;;15.76;100.00
9419;BME280;4748;50.802;7.132;2023-05-29T05:24:10;101549.19;;;16.06;100.00
9419;BME280;4748;50.802;7.132;2023-05-29T05:26:36;101541.69;;;16.08;100.00
9419;BME280;4748;50.802;7.132;2023-05-29T05:29:01;101542.63;;;16.02;100.00
9419;BME280;4748;50.802;7.132;2023-05-29T05:31:26;101536.03;;;16.21;100.00
9419;BME280;4748;50.802;7.132;2023-05-29T05:33:52;101543.94;;;16.45;100.00
9419;BME280;4748;50.802;7.132;2023-05-29T05:36:18;101540.75;;;16.48;100.00
9419;BME280;4748;50.802;7.132;2023-05-29T05:38:43;101547.47;;;16.69;100.00
9419;BME280;4748;50.802;7.132;2023-05-29T05:41:09;101554.72;;;16.68;100.00
9419;BME280;4748;50.802;7.132;2023-05-29T05:43:35;101561.16;;;17.01;100.00
9419;BME280;4748;50.802;7.132;2023-05-29T05:46:00;101552.28;;;17.17;100.00
9419;BME280;4748;50.802;7.132;2023-05-29T05:48:25;101568.56;;;17.45;100.00
9419;BME280;4748;50.802;7.132;2023-05-29T05:50:51;101568.78;;;17.55;100.00
9419;BME280;4748;50.802;7.132;2023-05-29T05:53:16;101564.28;;;17.77;100.00
9419;BME280;4748;50.802;7.132;2023-05-29T05:55:42;101562.34;;;18.05;100.00
9419;BME280;4748;50.802;7.132;2023-05-29T05:58:07;101560.56;;;18.43;100.00
9419;BME280;4748;50.802;7.132;2023-05-29T06:00:33;101559.88;;;18.52;100.00
9419;BME280;4748;50.802;7.132;2023-05-29T06:02:58;101552.97;;;18.61;100.00
9419;BME280;4748;50.802;7.132;2023-05-29T06:05:25;101555.25;;;18.91;100.00
9419;BME280;4748;50.802;7.132;2023-05-29T06:07:50;101552.09;;;18.77;100.00
9419;BME280;4748;50.802;7.132;2023-05-29T06:10:16;101562.38;;;18.75;100.00
9419;BME280;4748;50.802;7.132;2023-05-29T06:12:41;101574.41;;;18.63;100.00
9419;BME280;4748;50.802;7.132;2023-05-29T06:15:07;101573.38;;;18.47;100.00
9419;BME280;4748;50.802;7.132;2023-05-29T06:17:32;101577.22;;;18.35;100.00
9419;BME280;4748;50.802;7.132;2023-05-29T06:19:58;101580.78;;;17.91;100.00
9419;BME280;4748;50.802;7.132;2023-05-29T06:22:23;101582.03;;;17.84;100.00
9419;BME280;4748;50.802;7.132;2023-05-29T06:24:49;101581.63;;;17.92;100.00
9419;BME280;4748;50.802;7.132;2023-05-29T06:27:14;101583.59;;;18.13;100.00
9419;BME280;4748;50.802;7.132;2023-05-29T06:29:39;101578.28;;;18.34;100.00
9419;BME280;4748;50.802;7.132;2023-05-29T06:32:05;101581.50;;;18.31;100.00
9419;BME280;4748;50.802;7.132;2023-05-29T06:34:31;101585.63;;;18.17;100.00
9419;BME280;4748;50.802;7.132;2023-05-29T06:36:56;101581.75;;;18.13;100.00
9419;BME280;4748;50.802;7.132;2023-05-29T06:39:21;101582.34;;;18.15;100.00
9419;BME280;4748;50.802;7.132;2023-05-29T06:41:47;101591.69;;;18.24;100.00
9419;BME280;4748;50.802;7.132;2023-05-29T06:44:12;101588.69;;;18.37;100.00
9419;BME280;4748;50.802;7.132;2023-05-29T06:46:38;101591.84;;;18.50;100.00
9419;BME280;4748;50.802;7.132;2023-05-29T06:49:03;101589.13;;;18.67;100.00
9419;BME280;4748;50.802;7.132;2023-05-29T06:51:29;101587.16;;;18.62;100.00
9419;BME280;4748;50.802;7.132;2023-05-29T06:53:54;101587.25;;;18.51;100.00
9419;BME280;4748;50.802;7.132;2023-05-29T06:56:20;101586.28;;;18.57;100.00
9419;BME280;4748;50.802;7.132;2023-05-29T06:58:46;101582.31;;;18.48;100.00
9419;BME280;4748;50.802;7.132;2023-05-29T07:01:11;101576.19;;;18.74;100.00
9419;BME280;4748;50.802;7.132;2023-05-29T07:03:37;101584.28;;;18.69;100.00
9419;BME280;4748;50.802;7.132;2023-05-29T07:06:03;101588.03;;;18.68;100.00
9419;BME280;4748;50.802;7.132;2023-05-29T07:08:28;101576.19;;;18.74;100.00
9419;BME280;4748;50.802;7.132;2023-05-29T07:10:54;101575.84;;;18.87;100.00
9419;BME280;4748;50.802;7.132;2023-05-29T07:13:20;101581.72;;;19.00;100.00
9419;BME280;4748;50.802;7.132;2023-05-29T07:15:45;101590.03;;;19.10;100.00
9419;BME280;4748;50.802;7.132;2023-05-29T07:18:11;101588.38;;;19.09;100.00
9419;BME280;4748;50.802;7.132;2023-05-29T07:20:37;101592.22;;;19.13;100.00
9419;BME280;4748;50.802;7.132;2023-05-29T07:23:02;101588.56;;;19.24;100.00
9419;BME280;4748;50.802;7.132;2023-05-29T07:25:29;101589.59;;;19.39;100.00
9419;BME280;4748;50.802;7.132;2023-05-29T07:27:55;101593.19;;;19.71;100.00
9419;BME280;4748;50.802;7.132;2023-05-29T07:30:20;101585.28;;;19.96;100.00
9419;BME280;4748;50.802;7.132;2023-05-29T07:32:45;101576.31;;;20.21;98.97
9419;BME280;4748;50.802;7.132;2023-05-29T07:35:11;101586.78;;;20.08;99.67
9419;BME280;4748;50.802;7.132;2023-05-29T07:37:36;101587.72;;;20.23;99.23
9419;BME280;4748;50.802;7.132;2023-05-29T07:40:02;101587.09;;;20.11;99.64
9419;BME280;4748;50.802;7.132;2023-05-29T07:42:31;101584.22;;;19.97;100.00
9419;BME280;4748;50.802;7.132;2023-05-29T07:44:56;101589.25;;;20.09;99.83
9419;BME280;4748;50.802;7.132;2023-05-29T07:47:21;101588.34;;;20.35;99.20
9419;BME280;4748;50.802;7.132;2023-05-29T07:49:47;101589.63;;;20.59;96.47
9419;BME280;4748;50.802;7.132;2023-05-29T07:52:12;101604.41;;;20.32;98.21
9419;BME280;4748;50.802;7.132;2023-05-29T07:54:38;101600.69;;;20.11;98.53
9419;BME280;4748;50.802;7.132;2023-05-29T07:57:03;101600.09;;;20.04;98.52
9419;BME280;4748;50.802;7.132;2023-05-29T07:59:29;101603.34;;;20.38;98.06
9419;BME280;4748;50.802;7.132;2023-05-29T08:01:54;101595.19;;;20.38;97.01
9419;BME280;4748;50.802;7.132;2023-05-29T08:04:23;101596.66;;;20.50;94.48
9419;BME280;4748;50.802;7.132;2023-05-29T08:06:49;101605.09;;;20.17;96.30
9419;BME280;4748;50.802;7.132;2023-05-29T08:09:14;101603.31;;;20.33;95.96
9419;BME280;4748;50.802;7.132;2023-05-29T08:11:39;101601.13;;;20.66;94.48
9419;BME280;4748;50.802;7.132;2023-05-29T08:14:05;101594.78;;;20.55;94.55
9419;BME280;4748;50.802;7.132;2023-05-29T08:16:30;101598.59;;;20.54;95.44
9419;BME280;4748;50.802;7.132;2023-05-29T08:18:55;101594.94;;;20.39;96.33
9419;BME280;4748;50.802;7.132;2023-05-29T08:21:21;101590.31;;;20.71;94.13
9419;BME280;4748;50.802;7.132;2023-05-29T08:23:46;101587.97;;;20.53;95.68
9419;BME280;4748;50.802;7.132;2023-05-29T08:26:12;101598.38;;;20.61;95.14
9419;BME280;4748;50.802;7.132;2023-05-29T08:28:38;101590.22;;;21.02;93.55
9419;BME280;4748;50.802;7.132;2023-05-29T08:31:03;101589.25;;;20.82;92.49
9419;BME280;4748;50.802;7.132;2023-05-29T08:33:29;101592.81;;;21.33;91.30
9419;BME280;4748;50.802;7.132;2023-05-29T08:35:57;101587.91;;;21.40;90.12
9419;BME280;4748;50.802;7.132;2023-05-29T08:38:23;101590.03;;;21.28;90.05
9419;BME280;4748;50.802;7.132;2023-05-29T08:40:50;101589.47;;;21.16;90.24
9419;BME280;4748;50.802;7.132;2023-05-29T08:43:20;101583.47;;;21.19;90.63
9419;BME280;4748;50.802;7.132;2023-05-29T08:45:47;101588.97;;;21.34;89.37
9419;BME280;4748;50.802;7.132;2023-05-29T08:48:13;101583.88;;;21.48;89.74
9419;BME280;4748;50.802;7.132;2023-05-29T08:50:43;101580.31;;;21.47;87.51
9419;BME280;4748;50.802;7.132;2023-05-29T08:53:15;101579.53;;;21.52;86.72
9419;BME280;4748;50.802;7.132;2023-05-29T08:55:42;101586.00;;;21.46;88.59
9419;BME280;4748;50.802;7.132;2023-05-29T08:58:07;101576.22;;;21.45;88.95
9419;BME280;4748;50.802;7.132;2023-05-29T09:00:33;101582.97;;;21.37;88.67
9419;BME280;4748;50.802;7.132;2023-05-29T09:02:59;101581.09;;;21.43;87.28
9419;BME280;4748;50.802;7.132;2023-05-29T09:05:28;101584.19;;;21.71;85.11
9419;BME280;4748;50.802;7.132;2023-05-29T09:07:55;101586.06;;;21.55;85.68
9419;BME280;4748;50.802;7.132;2023-05-29T09:10:21;101578.47;;;21.72;85.65
9419;BME280;4748;50.802;7.132;2023-05-29T09:12:47;101584.50;;;21.89;84.89
9419;BME280;4748;50.802;7.132;2023-05-29T09:15:19;101578.78;;;22.01;82.83
9419;BME280;4748;50.802;7.132;2023-05-29T09:17:54;101580.19;;;22.28;81.91
9419;BME280;4748;50.802;7.132;2023-05-29T09:20:21;101577.72;;;22.36;80.44
9419;BME280;4748;50.802;7.132;2023-05-29T09:22:54;101568.44;;;22.47;79.04
9419;BME280;4748;50.802;7.132;2023-05-29T09:25:22;101568.09;;;22.78;77.65
9419;BME280;4748;50.802;7.132;2023-05-29T09:27:55;101574.13;;;22.60;78.02
9419;BME280;4748;50.802;7.132;2023-05-29T09:33:02;101568.41;;;22.67;79.24
9419;BME280;4748;50.802;7.132;2023-05-29T09:35:54;101581.22;;;22.71;77.98
9419;BME280;4748;50.802;7.132;2023-05-29T09:38:19;101576.03;;;22.80;78.78
9419;BME280;4748;50.802;7.132;2023-05-29T09:40:45;101569.69;;;23.04;77.85
9419;BME280;4748;50.802;7.132;2023-05-29T09:43:18;101566.16;;;22.94;74.75
9419;BME280;4748;50.802;7.132;2023-05-29T09:45:49;101568.81;;;23.23;76.05
9419;BME280;4748;50.802;7.132;2023-05-29T09:48:34;101569.44;;;23.54;71.28
9419;BME280;4748;50.802;7.132;2023-05-29T09:51:02;101569.06;;;23.75;74.25
9419;BME280;4748;50.802;7.132;2023-05-29T09:53:27;101571.34;;;23.58;75.34
9419;BME280;4748;50.802;7.132;2023-05-29T09:55:57;101566.44;;;23.55;73.89
9419;BME280;4748;50.802;7.132;2023-05-29T09:58:24;101558.50;;;23.59;76.05
9419;BME280;4748;50.802;7.132;2023-05-29T10:00:51;101565.84;;;23.68;74.63
9419;BME280;4748;50.802;7.132;2023-05-29T10:03:17;101570.06;;;23.41;73.38
9419;BME280;4748;50.802;7.132;2023-05-29T10:05:49;101570.50;;;23.67;72.82
9419;BME280;4748;50.802;7.132;2023-05-29T10:08:18;101556.53;;;23.69;73.45
9419;BME280;4748;50.802;7.132;2023-05-29T10:10:46;101558.91;;;23.37;74.65
9419;BME280;4748;50.802;7.132;2023-05-29T10:13:14;101556.47;;;23.79;73.76
9419;BME280;4748;50.802;7.132;2023-05-29T10:15:41;101548.69;;;23.96;72.78
9419;BME280;4748;50.802;7.132;2023-05-29T10:18:23;101557.03;;;23.76;69.86
9419;BME280;4748;50.802;7.132;2023-05-29T10:20:52;101558.13;;;23.80;72.07
9419;BME280;4748;50.802;7.132;2023-05-29T10:23:22;101555.75;;;24.02;72.89
9419;BME280;4748;50.802;7.132;2023-05-29T10:26:01;101549.81;;;24.23;72.02
9419;BME280;4748;50.802;7.132;2023-05-29T10:28:29;101560.38;;;24.39;71.54
9419;BME280;4748;50.802;7.132;2023-05-29T10:31:02;101565.50;;;24.46;67.26
9419;BME280;4748;50.802;7.132;2023-05-29T10:38:31;101560.75;;;24.28;71.32
9419;BME280;4748;50.802;7.132;2023-05-29T10:43:54;101554.28;;;24.14;72.16
9419;BME280;4748;50.802;7.132;2023-05-29T10:46:19;101555.66;;;24.12;72.01
9419;BME280;4748;50.802;7.132;2023-05-29T10:48:45;101545.91;;;24.01;71.97
9419;BME280;4748;50.802;7.132;2023-05-29T10:51:27;101560.72;;;23.95;70.23
9419;BME280;4748;50.802;7.132;2023-05-29T10:53:53;101545.97;;;24.24;72.04
9419;BME280;4748;50.802;7.132;2023-05-29T10:56:23;101540.13;;;24.02;71.18
9419;BME280;4748;50.802;7.132;2023-05-29T10:58:54;101527.69;;;24.19;71.34
9419;BME280;4748;50.802;7.132;2023-05-29T11:01:24;101529.75;;;23.99;71.15
9419;BME280;4748;50.802;7.132;2023-05-29T11:03:50;101538.38;;;24.16;71.58
9419;BME280;4748;50.802;7.132;2023-05-29T11:06:21;101537.69;;;24.01;69.33
9419;BME280;4748;50.802;7.132;2023-05-29T11:08:56;101526.63;;;24.15;69.43
9419;BME280;4748;50.802;7.132;2023-05-29T11:13:54;101538.38;;;24.16;70.67
9419;BME280;4748;50.802;7.132;2023-05-29T11:18:48;101522.97;;;24.25;70.15
9419;BME280;4748;50.802;7.132;2023-05-29T11:23:52;101534.47;;;24.22;70.85
9419;BME280;4748;50.802;7.132;2023-05-29T11:26:25;101528.50;;;24.20;70.32
9419;BME280;4748;50.802;7.132;2023-05-29T11:28:51;101527.56;;;24.34;70.33
9419;BME280;4748;50.802;7.132;2023-05-29T11:31:17;101526.66;;;24.11;70.68
9419;BME280;4748;50.802;7.132;2023-05-29T11:33:47;101531.41;;;24.00;69.64
9419;BME280;4748;50.802;7.132;2023-05-29T11:36:21;101519.16;;;23.93;69.20
9419;BME280;4748;50.802;7.132;2023-05-29T11:38:47;101511.78;;;24.21;71.34
9419;BME280;4748;50.802;7.132;2023-05-29T11:41:13;101494.44;;;24.31;70.33
9419;BME280;4748;50.802;7.132;2023-05-29T11:43:38;101504.06;;;24.23;70.62
9419;BME280;4748;50.802;7.132;2023-05-29T11:46:20;101514.50;;;24.21;70.66
9419;BME280;4748;50.802;7.132;2023-05-29T11:48:48;101515.13;;;24.47;69.75
9419;BME280;4748;50.802;7.132;2023-05-29T11:51:14;101506.88;;;24.18;70.86
9419;BME280;4748;50.802;7.132;2023-05-29T11:53:45;101516.94;;;24.56;70.01
9419;BME280;4748;50.802;7.132;2023-05-29T11:56:12;101509.63;;;24.70;69.76
9419;BME280;4748;50.802;7.132;2023-05-29T11:58:38;101513.03;;;24.62;70.09
9419;BME280;4748;50.802;7.132;2023-05-29T12:01:04;101513.94;;;24.53;69.72
9419;BME280;4748;50.802;7.132;2023-05-29T12:03:30;101508.72;;;24.56;69.83
9419;BME280;4748;50.802;7.132;2023-05-29T12:05:55;101501.41;;;24.47;70.16
9419;BME280;4748;50.802;7.132;2023-05-29T12:08:22;101506.50;;;24.58;69.75
9419;BME280;4748;50.802;7.132;2023-05-29T12:10:49;101498.09;;;24.50;70.60
9419;BME280;4748;50.802;7.132;2023-05-29T12:13:14;101508.88;;;24.41;69.43
9419;BME280;4748;50.802;7.132;2023-05-29T12:15:43;101504.56;;;24.35;70.32
9419;BME280;4748;50.802;7.132;2023-05-29T12:18:09;101497.75;;;24.56;71.21
9419;BME280;4748;50.802;7.132;2023-05-29T12:20:35;101504.75;;;24.67;70.32
9419;BME280;4748;50.802;7.132;2023-05-29T12:23:01;101488.88;;;24.64;68.54
9419;BME280;4748;50.802;7.132;2023-05-29T12:25:27;101498.09;;;24.50;68.47
9419;BME280;4748;50.802;7.132;2023-05-29T12:27:55;101495.34;;;24.73;67.80
9419;BME280;4748;50.802;7.132;2023-05-29T12:30:21;101497.56;;;24.71;68.51
9419;BME280;4748;50.802;7.132;2023-05-29T12:32:49;101502.59;;;24.87;67.66
9419;BME280;4748;50.802;7.132;2023-05-29T12:35:20;101503.53;;;24.78;66.20
9419;BME280;4748;50.802;7.132;2023-05-29T12:37:53;101508.38;;;25.09;65.14
9419;BME280;4748;50.802;7.132;2023-05-29T12:40:23;101499.03;;;25.10;67.08
9419;BME280;4748;50.802;7.132;2023-05-29T12:43:02;101502.44;;;25.02;64.63
9419;BME280;4748;50.802;7.132;2023-05-29T12:45:30;101501.63;;;25.02;66.01
9419;BME280;4748;50.802;7.132;2023-05-29T12:47:57;101496.00;;;25.12;65.71
9419;BME280;4748;50.802;7.132;2023-05-29T12:50:44;101494.53;;;24.96;64.20
9419;BME280;4748;50.802;7.132;2023-05-29T12:53:11;101505.41;;;25.06;65.44
9419;BME280;4748;50.802;7.132;2023-05-29T12:55:42;101498.78;;;25.07;65.97
9419;BME280;4748;50.802;7.132;2023-05-29T12:58:12;101507.72;;;24.94;66.29
9419;BME280;4748;50.802;7.132;2023-05-29T13:00:42;101503.53;;;25.01;65.38
9419;BME280;4748;50.802;7.132;2023-05-29T13:03:08;101503.22;;;25.03;66.08
9419;BME280;4748;50.802;7.132;2023-05-29T13:05:34;101502.91;;;25.27;65.29
9419;BME280;4748;50.802;7.132;2023-05-29T13:08:00;101498.59;;;25.21;65.09
9419;BME280;4748;50.802;7.132;2023-05-29T13:10:26;101503.84;;;25.18;65.30
9419;BME280;4748;50.802;7.132;2023-05-29T13:12:53;101489.84;;;25.19;64.74
9419;BME280;4748;50.802;7.132;2023-05-29T13:15:21;101491.13;;;25.09;63.18
9419;BME280;4748;50.802;7.132;2023-05-29T13:17:47;101491.28;;;25.17;65.12
9419;BME280;4748;50.802;7.132;2023-05-29T13:20:13;101494.53;;;24.96;65.84
9419;BME280;4748;50.802;7.132;2023-05-29T13:22:39;101501.13;;;24.95;64.82
9419;BME280;4748;50.802;7.132;2023-05-29T13:25:07;101485.78;;;25.17;63.66
9419;BME280;4748;50.802;7.132;2023-05-29T13:27:35;101492.81;;;25.00;64.65
9419;BME280;4748;50.802;7.132;2023-05-29T13:30:02;101492.66;;;25.15;62.82
9419;BME280;4748;50.802;7.132;2023-05-29T13:32:28;101490.53;;;25.12;62.70
9419;BME280;4748;50.802;7.132;2023-05-29T13:34:53;101491.44;;;25.25;62.41
9419;BME280;4748;50.802;7.132;2023-05-29T13:37:18;101492.84;;;25.41;61.48
9419;BME280;4748;50.802;7.132;2023-05-29T13:39:44;101494.28;;;25.34;61.75
9419;BME280;4748;50.802;7.132;2023-05-29T13:42:09;101489.84;;;25.38;61.77
9419;BME280;4748;50.802;7.132;2023-05-29T13:44:35;101489.19;;;25.27;60.56
9419;BME280;4748;50.802;7.132;2023-05-29T13:47:01;101495.88;;;25.21;61.02
9419;BME280;4748;50.802;7.132;2023-05-29T13:49:26;101490.25;;;25.31;61.03
9419;BME280;4748;50.802;7.132;2023-05-29T13:51:52;101493.19;;;25.35;61.37
9419;BME280;4748;50.802;7.132;2023-05-29T13:54:17;101491.63;;;25.29;61.37
9419;BME280;4748;50.802;7.132;2023-05-29T13:56:43;101491.94;;;25.27;61.48
9419;BME280;4748;50.802;7.132;2023-05-29T13:59:09;101485.91;;;25.44;61.68
9419;BME280;4748;50.802;7.132;2023-05-29T14:01:34;101493.72;;;25.37;61.47
9419;BME280;4748;50.802;7.132;2023-05-29T14:04:00;101492.00;;;25.22;61.25
9419;BME280;4748;50.802;7.132;2023-05-29T14:06:26;101496.91;;;25.25;60.97
9419;BME280;4748;50.802;7.132;2023-05-29T14:08:52;101493.78;;;25.14;61.58
9419;BME280;4748;50.802;7.132;2023-05-29T14:11:18;101489.53;;;25.21;60.73
9419;BME280;4748;50.802;7.132;2023-05-29T14:13:43;101489.47;;;25.08;61.29
9419;BME280;4748;50.802;7.132;2023-05-29T14:16:09;101485.72;;;24.99;60.78
9419;BME280;4748;50.802;7.132;2023-05-29T14:18:34;101484.22;;;24.88;61.53
9419;BME280;4748;50.802;7.132;2023-05-29T14:20:59;101482.94;;;25.04;61.69
9419;BME280;4748;50.802;7.132;2023-05-29T14:23:25;101480.34;;;25.12;61.25
9419;BME280;4748;50.802;7.132;2023-05-29T14:25:50;101484.34;;;25.01;61.88
9419;BME280;4748;50.802;7.132;2023-05-29T14:28:18;101486.97;;;24.88;60.57
9419;BME280;4748;50.802;7.132;2023-05-29T14:30:44;101481.66;;;24.73;60.10
9419;BME280;4748;50.802;7.132;2023-05-29T14:33:09;101484.09;;;24.98;59.85
9419;BME280;4748;50.802;7.132;2023-05-29T14:35:35;101485.28;;;24.92;60.12
9419;BME280;4748;50.802;7.132;2023-05-29T14:38:00;101491.75;;;24.77;58.96
9419;BME280;4748;50.802;7.132;2023-05-29T14:40:26;101481.13;;;24.71;59.88
9419;BME280;4748;50.802;7.132;2023-05-29T14:42:51;101480.91;;;24.67;58.99
9419;BME280;4748;50.802;7.132;2023-05-29T14:45:17;101481.00;;;24.81;58.38
9419;BME280;4748;50.802;7.132;2023-05-29T14:47:42;101483.72;;;24.86;58.76
9419;BME280;4748;50.802;7.132;2023-05-29T14:50:08;101480.00;;;24.95;58.88
9419;BME280;4748;50.802;7.132;2023-05-29T14:52:34;101487.41;;;25.18;57.77
9419;BME280;4748;50.802;7.132;2023-05-29T14:55:01;101478.91;;;24.96;56.23
9419;BME280;4748;50.802;7.132;2023-05-29T14:57:27;101475.38;;;25.32;57.68
9419;BME280;4748;50.802;7.132;2023-05-29T14:59:52;101473.38;;;25.19;56.22
9419;BME280;4748;50.802;7.132;2023-05-29T15:02:18;101486.22;;;25.06;57.18
9419;BME280;4748;50.802;7.132;2023-05-29T15:04:43;101483.06;;;24.70;57.27
9419;BME280;4748;50.802;7.132;2023-05-29T15:07:08;101483.75;;;24.81;56.64
9419;BME280;4748;50.802;7.132;2023-05-29T15:09:34;101477.81;;;24.97;56.65
9419;BME280;4748;50.802;7.132;2023-05-29T15:11:59;101472.28;;;24.79;57.01
9419;BME280;4748;50.802;7.132;2023-05-29T15:14:24;101480.13;;;24.85;56.18
9419;BME280;4748;50.802;7.132;2023-05-29T15:16:50;101477.03;;;24.92;57.25
9419;BME280;4748;50.802;7.132;2023-05-29T15:19:15;101473.59;;;24.81;57.54
9419;BME280;4748;50.802;7.132;2023-05-29T15:21:40;101487.63;;;25.03;56.81
9419;BME280;4748;50.802;7.132;2023-05-29T15:24:06;101484.59;;;25.00;56.81
9419;BME280;4748;50.802;7.132;2023-05-29T15:26:33;101481.25;;;25.08;55.90
9419;BME280;4748;50.802;7.132;2023-05-29T15:28:58;101484.94;;;25.17;55.89
9419;BME280;4748;50.802;7.132;2023-05-29T15:31:24;101491.25;;;24.94;56.23
9419;BME280;4748;50.802;7.132;2023-05-29T15:33:50;101485.50;;;24.72;57.37
9419;BME280;4748;50.802;7.132;2023-05-29T15:36:15;101490.72;;;24.73;57.09
9419;BME280;4748;50.802;7.132;2023-05-29T15:38:41;101491.50;;;24.74;56.52
9419;BME280;4748;50.802;7.132;2023-05-29T15:41:07;101499.59;;;24.84;56.45
9419;BME280;4748;50.802;7.132;2023-05-29T15:43:32;101502.19;;;24.75;56.24
9419;BME280;4748;50.802;7.132;2023-05-29T15:45:58;101521.25;;;24.62;56.72
9419;BME280;4748;50.802;7.132;2023-05-29T15:48:23;101509.06;;;24.73;56.35
9419;BME280;4748;50.802;7.132;2023-05-29T15:50:49;101493.97;;;24.99;55.11
9419;BME280;4748;50.802;7.132;2023-05-29T15:53:14;101517.09;;;25.11;53.62
9419;BME280;4748;50.802;7.132;2023-05-29T15:55:39;101495.91;;;25.17;55.47
9419;BME280;4748;50.802;7.132;2023-05-29T15:58:05;101505.16;;;25.25;54.95
9419;BME280;4748;50.802;7.132;2023-05-29T16:00:31;101498.09;;;25.38;55.41
9419;BME280;4748;50.802;7.132;2023-05-29T16:02:56;101508.47;;;25.41;53.79
9419;BME280;4748;50.802;7.132;2023-05-29T16:05:21;101501.81;;;25.47;55.74
9419;BME280;4748;50.802;7.132;2023-05-29T16:07:47;101502.97;;;25.59;55.87
9419;BME280;4748;50.802;7.132;2023-05-29T16:10:13;101505.41;;;25.42;54.16
9419;BME280;4748;50.802;7.132;2023-05-29T16:12:42;101495.19;;;25.48;54.72
9419;BME280;4748;50.802;7.132;2023-05-29T16:15:07;101506.25;;;25.43;53.81
9419;BME280;4748;50.802;7.132;2023-05-29T16:17:33;101495.56;;;25.41;53.85
9419;BME280;4748;50.802;7.132;2023-05-29T16:19:58;101500.97;;;25.83;54.37
9419;BME280;4748;50.802;7.132;2023-05-29T16:22:24;101500.38;;;25.86;54.46
9419;BME280;4748;50.802;7.132;2023-05-29T16:24:50;101492.09;;;26.04;53.61
9419;BME280;4748;50.802;7.132;2023-05-29T16:27:15;101488.31;;;25.69;51.83
9419;BME280;4748;50.802;7.132;2023-05-29T16:29:41;101498.09;;;26.06;52.84
9419;BME280;4748;50.802;7.132;2023-05-29T16:32:06;101496.22;;;25.88;52.56
9419;BME280;4748;50.802;7.132;2023-05-29T16:34:32;101511.06;;;25.87;54.33
9419;BME280;4748;50.802;7.132;2023-05-29T16:36:57;101512.03;;;25.41;55.22
9419;BME280;4748;50.802;7.132;2023-05-29T16:39:23;101520.03;;;25.56;54.24
9419;BME280;4748;50.802;7.132;2023-05-29T16:41:52;101508.56;;;25.36;54.31
9419;BME280;4748;50.802;7.132;2023-05-29T16:44:17;101515.97;;;25.72;53.70
9419;BME280;4748;50.802;7.132;2023-05-29T16:46:43;101507.66;;;25.59;53.88
9419;BME280;4748;50.802;7.132;2023-05-29T16:49:08;101510.84;;;25.84;53.93
9419;BME280;4748;50.802;7.132;2023-05-29T16:51:33;101506.03;;;25.76;52.90
9419;BME280;4748;50.802;7.132;2023-05-29T16:53:59;101507.56;;;25.82;52.59